createdAt,value
2023-02-04T00:13:13.657Z,6.32
2023-02-04T00:18:16.688Z,6.30
2023-02-04T00:23:19.732Z,6.97
2023-02-04T00:28:22.829Z,7.50
2023-02-04T00:33:26.090Z,7.30
2023-02-04T00:43:32.696Z,8.30
2023-02-04T00:48:35.789Z,7.60
2023-02-04T00:53:38.871Z,7.40
2023-02-04T00:58:42.016Z,6.45
2023-02-04T01:03:45.053Z,6.55
2023-02-04T01:08:48.098Z,5.97
2023-02-04T01:13:52.451Z,6.03
2023-02-04T01:18:55.688Z,5.65
2023-02-04T01:24:00.812Z,4.65
2023-02-04T01:29:04.296Z,3.05
2023-02-04T01:34:07.689Z,2.47
2023-02-04T01:39:13.436Z,2.30
2023-02-04T01:49:19.674Z,1.95
2023-02-04T01:54:22.835Z,2.53
2023-02-04T01:59:27.920Z,2.20
2023-02-04T02:04:33.808Z,2.50
2023-02-04T02:09:38.143Z,2.13
2023-02-04T02:14:42.220Z,2.30
2023-02-04T02:19:45.242Z,1.95
2023-02-04T02:24:48.433Z,2.00
2023-02-04T02:29:52.082Z,1.65
2023-02-04T02:34:55.157Z,2.38
2023-02-04T02:39:58.513Z,2.20
2023-02-04T02:50:06.669Z,1.70
2023-02-04T02:55:19.499Z,1.90
2023-02-04T03:00:28.689Z,1.55
2023-02-04T03:05:41.257Z,1.52
2023-02-04T03:10:45.746Z,1.70
2023-02-04T03:20:53.713Z,1.45
2023-02-04T03:25:57.043Z,0.98
2023-02-04T03:41:06.310Z,1.80
2023-02-04T03:46:09.697Z,1.05
2023-02-04T03:51:12.863Z,0.90
2023-02-04T03:56:16.030Z,0.60
2023-02-04T04:01:19.537Z,0.50
2023-02-04T04:06:23.175Z,0.80
2023-02-04T04:11:26.708Z,0.70
2023-02-04T04:16:29.820Z,0.73
2023-02-04T04:21:32.931Z,0.52
2023-02-04T04:26:36.817Z,0.80
2023-02-04T04:31:39.947Z,0.90
2023-02-04T04:41:46.026Z,1.00
2023-02-04T04:51:52.446Z,1.20
2023-02-04T04:56:55.455Z,1.55
2023-02-04T05:01:58.560Z,1.75
2023-02-04T05:07:01.702Z,1.52
2023-02-04T05:12:05.086Z,1.58
2023-02-04T05:22:12.074Z,1.83
2023-02-04T05:27:15.167Z,1.48
2023-02-04T05:32:18.364Z,2.08
2023-02-04T05:37:21.594Z,1.67
2023-02-04T05:42:24.808Z,2.85
2023-02-04T05:47:28.065Z,1.95
2023-02-04T05:57:34.048Z,2.17
2023-02-04T06:02:37.100Z,1.50
2023-02-04T06:07:40.184Z,1.30
2023-02-04T06:12:43.265Z,2.45
2023-02-04T06:17:46.347Z,1.33
2023-02-04T06:22:49.412Z,1.00
2023-02-04T06:32:55.768Z,1.20
2023-02-04T06:38:01.277Z,1.20
2023-02-04T06:43:05.597Z,1.40
2023-02-04T06:48:08.850Z,1.40
2023-02-04T06:53:12.055Z,1.38
2023-02-04T06:58:15.213Z,1.05
2023-02-04T07:03:18.299Z,1.17
2023-02-04T07:08:21.287Z,1.00
2023-02-04T07:13:24.448Z,0.80
2023-02-04T07:18:27.830Z,1.00
2023-02-04T07:23:30.994Z,1.00
2023-02-04T07:28:34.202Z,1.00
2023-02-04T07:33:37.358Z,1.20
2023-02-04T07:43:43.387Z,0.95
2023-02-04T07:48:46.568Z,0.68
2023-02-04T07:53:49.886Z,0.70
2023-02-04T07:58:53.238Z,0.80
2023-02-04T08:03:56.270Z,0.63
2023-02-04T08:08:59.551Z,0.95
2023-02-04T08:19:05.562Z,0.52
2023-02-04T08:24:09.115Z,0.98
2023-02-04T08:29:12.645Z,0.60
2023-02-04T08:34:15.707Z,0.77
2023-02-04T08:39:19.031Z,0.65
2023-02-04T08:44:22.221Z,0.73
2023-02-04T08:54:29.439Z,0.85
2023-02-04T08:59:32.699Z,0.60
2023-02-04T09:09:38.754Z,0.88
2023-02-04T09:14:41.970Z,0.68
2023-02-04T09:19:45.131Z,0.63
2023-02-04T09:24:48.347Z,0.45
2023-02-04T09:34:54.729Z,0.75
2023-02-04T09:39:58.041Z,2.70
2023-02-04T09:50:05.423Z,1.25
2023-02-04T09:55:16.192Z,0.90
2023-02-04T10:00:21.744Z,0.88
2023-02-04T10:05:29.645Z,0.63
2023-02-04T10:10:33.408Z,0.80
2023-02-04T10:15:36.623Z,0.98
2023-02-04T10:20:39.733Z,0.60
2023-02-04T10:25:42.848Z,0.82
2023-02-04T10:30:46.646Z,1.10
2023-02-04T10:41:04.198Z,1.48
2023-02-04T10:46:07.240Z,0.82
2023-02-04T10:51:13.606Z,0.98
2023-02-04T10:56:22.359Z,1.25
2023-02-04T11:01:28.983Z,1.20
2023-02-04T11:06:33.465Z,1.38
2023-02-04T11:11:36.715Z,0.98
2023-02-04T11:16:48.301Z,0.73
2023-02-04T11:21:51.732Z,1.38
2023-02-04T11:27:20.162Z,0.73
2023-02-04T11:32:35.743Z,1.65
2023-02-04T11:37:42.157Z,0.80
2023-02-04T11:42:46.656Z,1.13
2023-02-04T11:47:52.219Z,2.13
2023-02-04T11:52:55.705Z,1.40
2023-02-04T11:58:00.117Z,1.20
2023-02-04T12:08:22.702Z,0.90
2023-02-04T12:13:29.670Z,0.68
2023-02-04T12:18:35.199Z,0.75
2023-02-04T12:23:38.375Z,0.75
2023-02-04T12:28:41.948Z,1.00
2023-02-04T12:33:46.271Z,0.95
2023-02-04T12:38:49.411Z,0.88
2023-02-04T12:43:52.617Z,0.85
2023-02-04T12:48:56.053Z,0.77
2023-02-04T12:53:59.188Z,1.00
2023-02-04T12:59:02.280Z,0.90
2023-02-04T13:04:06.550Z,1.55
2023-02-04T13:09:09.768Z,0.85
2023-02-04T13:14:12.795Z,1.23
2023-02-04T13:19:15.950Z,0.82
2023-02-04T13:24:19.647Z,1.45
2023-02-04T13:29:23.089Z,0.82
2023-02-04T13:34:27.494Z,0.75
2023-02-04T13:39:31.011Z,1.38
2023-02-04T13:49:37.135Z,0.70
2023-02-04T13:54:40.215Z,0.68
2023-02-04T14:09:51.336Z,0.90
2023-02-04T14:14:58.286Z,0.70
2023-02-04T14:20:03.014Z,0.95
2023-02-04T14:25:06.682Z,0.77
2023-02-04T14:30:21.333Z,1.27
2023-02-04T14:35:25.585Z,0.98
2023-02-04T14:40:28.832Z,1.27
2023-02-04T14:50:38.171Z,0.80
2023-02-04T14:55:41.564Z,1.00
2023-02-04T15:00:45.047Z,0.68
2023-02-04T15:05:51.529Z,0.98
2023-02-04T15:10:55.480Z,0.82
2023-02-04T15:21:02.176Z,1.45
2023-02-04T15:26:06.109Z,1.27
2023-02-04T15:31:09.507Z,1.15
2023-02-04T15:36:12.970Z,1.08
2023-02-04T15:41:16.215Z,0.73
2023-02-04T15:51:22.543Z,1.20
2023-02-04T15:56:27.704Z,0.90
2023-02-04T16:01:31.146Z,1.27
2023-02-04T16:06:34.297Z,0.93
2023-02-04T16:11:40.424Z,1.25
2023-02-04T16:16:47.958Z,1.42
2023-02-04T16:21:51.168Z,1.25
2023-02-04T16:26:54.784Z,1.75
2023-02-04T16:31:58.134Z,1.15
2023-02-04T16:37:02.392Z,1.80
2023-02-04T16:42:06.663Z,1.77
2023-02-04T16:47:10.187Z,1.65
2023-02-04T16:52:13.296Z,3.40
2023-02-04T16:57:16.486Z,1.48
2023-02-04T17:02:19.684Z,1.60
2023-02-04T17:07:23.400Z,1.48
2023-02-04T17:17:36.606Z,2.00
2023-02-04T17:22:39.748Z,1.75
2023-02-04T17:27:43.929Z,1.58
2023-02-04T17:37:53.013Z,1.55
2023-02-04T17:43:00.429Z,1.20
2023-02-04T17:48:05.027Z,2.17
2023-02-04T17:58:14.934Z,0.83
2023-02-04T18:03:23.383Z,1.73
2023-02-04T18:08:41.028Z,1.33
2023-02-04T18:13:44.893Z,1.58
2023-02-04T18:18:48.020Z,1.10
2023-02-04T18:24:02.296Z,0.90
2023-02-04T18:29:31.132Z,1.35
2023-02-04T18:34:44.734Z,1.40
2023-02-04T18:39:47.860Z,1.98
2023-02-04T18:44:51.286Z,1.50
2023-02-04T18:54:58.011Z,2.55
2023-02-04T19:00:24.064Z,1.70
2023-02-04T19:05:33.991Z,1.58
2023-02-04T19:10:43.893Z,1.80
2023-02-04T19:15:58.606Z,1.45
2023-02-04T19:21:16.365Z,1.23
2023-02-04T19:26:28.535Z,1.85
2023-02-04T19:31:36.829Z,1.75
2023-02-04T19:36:39.950Z,1.80
2023-02-04T19:41:53.298Z,1.75
2023-02-04T19:46:57.830Z,1.63
2023-02-04T19:52:01.102Z,1.45
2023-02-04T19:57:25.710Z,1.75
2023-02-04T20:02:33.907Z,1.40
2023-02-04T20:07:38.458Z,1.25
2023-02-04T20:12:41.668Z,1.35
2023-02-04T20:17:49.332Z,1.60
2023-02-04T20:22:55.027Z,1.17
2023-02-04T20:28:03.332Z,1.40
2023-02-04T20:33:19.370Z,1.27
2023-02-04T20:38:22.846Z,1.60
2023-02-04T20:43:26.099Z,1.10
2023-02-04T20:48:33.914Z,1.73
2023-02-04T20:53:45.457Z,1.42
2023-02-04T20:58:48.758Z,1.40
2023-02-04T21:03:52.003Z,1.77
2023-02-04T21:13:59.473Z,1.35
2023-02-04T21:19:03.065Z,1.42
2023-02-04T21:24:06.886Z,1.40
2023-02-04T21:29:10.016Z,1.67
2023-02-04T21:34:14.054Z,1.02
2023-02-04T21:39:17.185Z,2.22
2023-02-04T21:44:20.253Z,1.30
2023-02-04T21:49:23.479Z,1.73
2023-02-04T21:54:26.589Z,0.90
2023-02-04T21:59:33.713Z,1.92
2023-02-04T22:04:36.829Z,1.58
2023-02-04T22:09:39.950Z,0.98
2023-02-04T22:14:43.027Z,1.77
2023-02-04T22:19:46.060Z,1.40
2023-02-04T22:24:49.111Z,1.75
2023-02-04T22:29:52.397Z,1.08
2023-02-04T22:34:55.612Z,1.15
2023-02-04T22:39:58.774Z,1.40
2023-02-04T22:45:01.931Z,1.17
2023-02-04T22:50:07.497Z,1.08
2023-02-04T22:55:10.604Z,1.08
2023-02-04T23:00:16.362Z,1.50
2023-02-04T23:05:19.655Z,1.20
2023-02-04T23:10:22.706Z,1.48
2023-02-04T23:15:25.921Z,2.17
2023-02-04T23:20:29.081Z,2.10
2023-02-04T23:25:34.106Z,1.27
2023-02-04T23:30:37.389Z,1.90
2023-02-04T23:35:40.501Z,1.38
2023-02-04T23:40:43.636Z,1.40
2023-02-04T23:45:46.758Z,1.13
2023-02-04T23:50:50.041Z,0.88
2023-02-04T23:55:53.258Z,1.38
